Braham, MN (55006)

4:45 AM CDT on May 29, 2015 (GMT -0500)
KBEK 95.5 FM Studios | | Change Station
CLOSE
Current Station
Personal Weather Station
Location: Braham, MN
Elevation: 951 ft
Nearby Weather Stations

Elev 951 ft 45.72 °N, 93.17 °W | Updated 9 minutes ago

Overcast
Overcast
63.1 °F
Feels Like 63.1 °F
N
4.7
Wind Variable Wind from SE

Today
High -- | Low -- °F
--% Chance of Precip.
Yesterday
High -- | Low -- °F
Precip. -- in
5:28 AM 8:52 PM
Waxing Gibbous, 82% visible
Pressure 29.87 in
Visibility 10.0 miles
Clouds Scattered Clouds 1800 ft
Overcast 2700 ft
Dew Point 58 °F
Humidity 83%
Rainfall 0.00 in
Snow Depth Not available.
UV 0 out of 12
Pollen 8.40 out of 12
Air Quality Not available.
Flu Activity Sporadic
METAR KROS 290936Z AUTO 16003KT 10SM SCT018 OVC027 17/15 A2987 RMK AO2 P0004 T01670145

More Conditions Fewer Conditions

Pressure 29.87 in
Visibility 10.0 miles
Clouds Scattered Clouds 1800 ft
Overcast 2700 ft
Dew Point 58 °F
Humidity 83%
Rainfall 0.00 in
Snow Depth Not available.
UV 0 out of 12
Pollen 8.40 out of 12
Air Quality Not available.
Flu Activity Sporadic
METAR KROS 290936Z AUTO 16003KT 10SM SCT018 OVC027 17/15 A2987 RMK AO2 P0004 T01670145

More Conditions Fewer Conditions

10-Day Weather Forecast

Almanac

Astronomy

May. 29, 2015 Rise Set
Actual Time
Civil Twilight
Nautical Twilight
Astronomical Twilight
Moon
Length of Visible Light
Length of Day
Tomorrow will be .
, % of the Moon is Illuminated

Today's Extremes

State Highs State Lows

Community

WunderPhotos

Upload Photos

1,825,227 photos uploaded!

WunderBlogs® & News

Nearby

Air Quality

  Air Quality AQ Index Pollutant
Not available.

Snow Depth

Station Depth Elevation

Earthquake Activity

City Distance Mag. Time & Date
Minimum magnitude displayed is 2.5.

Coastal Water Temperatures

Place Temperature

Stations

Nearby Weather Stations

Station Location Temp. Windchill Dew Point Humidity Wind Precip. Elev Updated Type